sensor_id;sensor_type;location;lat;lon;timestamp;P1;durP1;ratioP1;P2;durP2;ratioP2
75169;SDS011;63749;49.186;9.222;2023-12-20T00:00:01;12.40;;;4.53;;
75169;SDS011;63749;49.186;9.222;2023-12-20T00:02:26;10.20;;;4.40;;
75169;SDS011;63749;49.186;9.222;2023-12-20T00:04:52;10.20;;;4.23;;
75169;SDS011;63749;49.186;9.222;2023-12-20T00:07:17;7.53;;;4.15;;
75169;SDS011;63749;49.186;9.222;2023-12-20T00:09:42;10.33;;;4.63;;
75169;SDS011;63749;49.186;9.222;2023-12-20T00:12:08;9.00;;;4.83;;
75169;SDS011;63749;49.186;9.222;2023-12-20T00:14:33;14.13;;;4.80;;
75169;SDS011;63749;49.186;9.222;2023-12-20T00:16:58;13.67;;;4.50;;
75169;SDS011;63749;49.186;9.222;2023-12-20T00:19:24;9.97;;;4.93;;
75169;SDS011;63749;49.186;9.222;2023-12-20T00:21:49;11.50;;;4.83;;
75169;SDS011;63749;49.186;9.222;2023-12-20T00:24:15;10.83;;;5.20;;
75169;SDS011;63749;49.186;9.222;2023-12-20T00:26:40;11.70;;;5.22;;
75169;SDS011;63749;49.186;9.222;2023-12-20T00:29:06;11.47;;;5.40;;
75169;SDS011;63749;49.186;9.222;2023-12-20T00:31:31;11.13;;;5.27;;
75169;SDS011;63749;49.186;9.222;2023-12-20T00:33:56;10.60;;;5.17;;
75169;SDS011;63749;49.186;9.222;2023-12-20T00:36:22;11.07;;;5.33;;
75169;SDS011;63749;49.186;9.222;2023-12-20T00:38:47;14.07;;;6.10;;
75169;SDS011;63749;49.186;9.222;2023-12-20T00:41:13;12.95;;;5.70;;
75169;SDS011;63749;49.186;9.222;2023-12-20T00:43:38;13.67;;;5.53;;
75169;SDS011;63749;49.186;9.222;2023-12-20T00:46:03;13.50;;;6.10;;
75169;SDS011;63749;49.186;9.222;2023-12-20T00:48:29;13.67;;;6.03;;
75169;SDS011;63749;49.186;9.222;2023-12-20T00:50:57;13.25;;;5.97;;
75169;SDS011;63749;49.186;9.222;2023-12-20T00:53:22;13.67;;;6.23;;
75169;SDS011;63749;49.186;9.222;2023-12-20T00:55:48;11.77;;;5.77;;
75169;SDS011;63749;49.186;9.222;2023-12-20T00:58:13;14.35;;;6.35;;
75169;SDS011;63749;49.186;9.222;2023-12-20T01:00:40;15.43;;;6.83;;
75169;SDS011;63749;49.186;9.222;2023-12-20T01:03:07;12.05;;;6.18;;
75169;SDS011;63749;49.186;9.222;2023-12-20T01:05:32;13.90;;;6.00;;
75169;SDS011;63749;49.186;9.222;2023-12-20T01:07:57;13.05;;;6.03;;
75169;SDS011;63749;49.186;9.222;2023-12-20T01:10:23;12.50;;;5.93;;
75169;SDS011;63749;49.186;9.222;2023-12-20T01:12:48;12.50;;;5.87;;
75169;SDS011;63749;49.186;9.222;2023-12-20T01:15:14;12.80;;;6.17;;
75169;SDS011;63749;49.186;9.222;2023-12-20T01:17:39;12.77;;;5.87;;
75169;SDS011;63749;49.186;9.222;2023-12-20T01:20:05;16.97;;;6.50;;
75169;SDS011;63749;49.186;9.222;2023-12-20T01:22:31;15.10;;;6.68;;
75169;SDS011;63749;49.186;9.222;2023-12-20T01:24:56;15.40;;;6.57;;
75169;SDS011;63749;49.186;9.222;2023-12-20T01:27:21;14.77;;;5.90;;
75169;SDS011;63749;49.186;9.222;2023-12-20T01:29:47;14.37;;;6.10;;
75169;SDS011;63749;49.186;9.222;2023-12-20T01:32:12;13.53;;;6.10;;
75169;SDS011;63749;49.186;9.222;2023-12-20T01:34:37;13.30;;;5.83;;
75169;SDS011;63749;49.186;9.222;2023-12-20T01:37:03;11.07;;;5.47;;
75169;SDS011;63749;49.186;9.222;2023-12-20T01:39:29;10.77;;;5.88;;
75169;SDS011;63749;49.186;9.222;2023-12-20T01:41:54;10.60;;;5.40;;
75169;SDS011;63749;49.186;9.222;2023-12-20T01:44:19;11.77;;;4.83;;
75169;SDS011;63749;49.186;9.222;2023-12-20T01:46:45;7.55;;;4.38;;
75169;SDS011;63749;49.186;9.222;2023-12-20T01:49:11;7.67;;;4.00;;
75169;SDS011;63749;49.186;9.222;2023-12-20T01:51:37;7.18;;;3.90;;
75169;SDS011;63749;49.186;9.222;2023-12-20T01:54:03;7.20;;;3.70;;
75169;SDS011;63749;49.186;9.222;2023-12-20T01:56:29;6.90;;;3.70;;
75169;SDS011;63749;49.186;9.222;2023-12-20T01:58:56;8.32;;;4.28;;
75169;SDS011;63749;49.186;9.222;2023-12-20T02:01:22;8.30;;;3.92;;
75169;SDS011;63749;49.186;9.222;2023-12-20T02:03:48;7.90;;;3.90;;
75169;SDS011;63749;49.186;9.222;2023-12-20T02:06:13;6.93;;;3.25;;
75169;SDS011;63749;49.186;9.222;2023-12-20T02:08:40;8.20;;;3.80;;
75169;SDS011;63749;49.186;9.222;2023-12-20T02:11:05;5.20;;;3.03;;
75169;SDS011;63749;49.186;9.222;2023-12-20T02:13:31;7.40;;;3.50;;
75169;SDS011;63749;49.186;9.222;2023-12-20T02:15:56;7.85;;;3.33;;
75169;SDS011;63749;49.186;9.222;2023-12-20T02:18:22;7.23;;;3.93;;
75169;SDS011;63749;49.186;9.222;2023-12-20T02:20:48;8.03;;;3.40;;
75169;SDS011;63749;49.186;9.222;2023-12-20T02:23:13;5.70;;;3.15;;
75169;SDS011;63749;49.186;9.222;2023-12-20T02:25:39;7.20;;;3.33;;
75169;SDS011;63749;49.186;9.222;2023-12-20T02:28:04;7.97;;;3.60;;
75169;SDS011;63749;49.186;9.222;2023-12-20T02:30:30;6.43;;;2.70;;
75169;SDS011;63749;49.186;9.222;2023-12-20T02:32:56;7.73;;;3.10;;
75169;SDS011;63749;49.186;9.222;2023-12-20T02:35:21;7.83;;;3.00;;
75169;SDS011;63749;49.186;9.222;2023-12-20T02:37:46;5.33;;;2.43;;
75169;SDS011;63749;49.186;9.222;2023-12-20T02:40:12;6.88;;;2.65;;
75169;SDS011;63749;49.186;9.222;2023-12-20T02:42:37;5.73;;;2.90;;
75169;SDS011;63749;49.186;9.222;2023-12-20T02:45:02;6.23;;;2.90;;
75169;SDS011;63749;49.186;9.222;2023-12-20T02:47:28;6.20;;;2.80;;
75169;SDS011;63749;49.186;9.222;2023-12-20T02:49:55;5.95;;;2.58;;
75169;SDS011;63749;49.186;9.222;2023-12-20T02:52:20;4.60;;;2.63;;
75169;SDS011;63749;49.186;9.222;2023-12-20T02:54:47;5.93;;;2.28;;
75169;SDS011;63749;49.186;9.222;2023-12-20T02:57:12;5.20;;;2.30;;
75169;SDS011;63749;49.186;9.222;2023-12-20T02:59:37;5.60;;;2.30;;
75169;SDS011;63749;49.186;9.222;2023-12-20T03:02:03;5.50;;;2.67;;
75169;SDS011;63749;49.186;9.222;2023-12-20T03:04:28;4.97;;;2.37;;
75169;SDS011;63749;49.186;9.222;2023-12-20T03:06:53;4.63;;;2.30;;
75169;SDS011;63749;49.186;9.222;2023-12-20T03:09:19;5.03;;;2.30;;
75169;SDS011;63749;49.186;9.222;2023-12-20T03:11:44;4.95;;;2.50;;
75169;SDS011;63749;49.186;9.222;2023-12-20T03:14:09;5.57;;;2.43;;
75169;SDS011;63749;49.186;9.222;2023-12-20T03:16:36;5.93;;;2.73;;
75169;SDS011;63749;49.186;9.222;2023-12-20T03:19:02;6.82;;;3.10;;
75169;SDS011;63749;49.186;9.222;2023-12-20T03:21:27;6.70;;;3.20;;
75169;SDS011;63749;49.186;9.222;2023-12-20T03:23:52;6.53;;;3.03;;
75169;SDS011;63749;49.186;9.222;2023-12-20T03:26:18;6.60;;;3.60;;
75169;SDS011;63749;49.186;9.222;2023-12-20T03:28:44;7.10;;;3.35;;
75169;SDS011;63749;49.186;9.222;2023-12-20T03:31:09;7.90;;;3.20;;
75169;SDS011;63749;49.186;9.222;2023-12-20T03:33:34;5.82;;;2.95;;
75169;SDS011;63749;49.186;9.222;2023-12-20T03:36:00;6.67;;;3.10;;
75169;SDS011;63749;49.186;9.222;2023-12-20T03:38:25;5.20;;;2.90;;
75169;SDS011;63749;49.186;9.222;2023-12-20T03:40:50;5.07;;;2.80;;
75169;SDS011;63749;49.186;9.222;2023-12-20T03:43:16;7.27;;;3.07;;
75169;SDS011;63749;49.186;9.222;2023-12-20T03:45:42;5.67;;;2.80;;
75169;SDS011;63749;49.186;9.222;2023-12-20T03:48:07;6.17;;;3.10;;
75169;SDS011;63749;49.186;9.222;2023-12-20T03:50:33;5.30;;;2.73;;
75169;SDS011;63749;49.186;9.222;2023-12-20T03:52:59;7.00;;;3.20;;
75169;SDS011;63749;49.186;9.222;2023-12-20T03:55:24;7.77;;;2.73;;
75169;SDS011;63749;49.186;9.222;2023-12-20T03:57:49;5.43;;;3.03;;
75169;SDS011;63749;49.186;9.222;2023-12-20T04:00:15;5.63;;;2.97;;
75169;SDS011;63749;49.186;9.222;2023-12-20T04:02:40;5.53;;;2.80;;
75169;SDS011;63749;49.186;9.222;2023-12-20T04:05:07;4.53;;;2.58;;
75169;SDS011;63749;49.186;9.222;2023-12-20T04:07:35;4.80;;;2.50;;
75169;SDS011;63749;49.186;9.222;2023-12-20T04:10:01;4.50;;;2.67;;
75169;SDS011;63749;49.186;9.222;2023-12-20T04:12:28;4.47;;;2.78;;
75169;SDS011;63749;49.186;9.222;2023-12-20T04:14:53;4.82;;;2.50;;
75169;SDS011;63749;49.186;9.222;2023-12-20T04:17:19;5.67;;;2.77;;
75169;SDS011;63749;49.186;9.222;2023-12-20T04:19:45;4.07;;;2.53;;
75169;SDS011;63749;49.186;9.222;2023-12-20T04:22:11;5.67;;;2.50;;
75169;SDS011;63749;49.186;9.222;2023-12-20T04:24:36;5.20;;;2.80;;
75169;SDS011;63749;49.186;9.222;2023-12-20T04:27:01;5.80;;;2.70;;
75169;SDS011;63749;49.186;9.222;2023-12-20T04:29:27;6.68;;;3.03;;
75169;SDS011;63749;49.186;9.222;2023-12-20T04:31:53;6.00;;;2.90;;
75169;SDS011;63749;49.186;9.222;2023-12-20T04:34:18;6.03;;;3.00;;
75169;SDS011;63749;49.186;9.222;2023-12-20T04:36:43;4.70;;;2.88;;
75169;SDS011;63749;49.186;9.222;2023-12-20T04:39:09;4.90;;;2.80;;
75169;SDS011;63749;49.186;9.222;2023-12-20T04:41:36;6.13;;;3.30;;
75169;SDS011;63749;49.186;9.222;2023-12-20T04:44:01;4.73;;;3.00;;
75169;SDS011;63749;49.186;9.222;2023-12-20T04:46:27;6.93;;;3.28;;
75169;SDS011;63749;49.186;9.222;2023-12-20T04:48:52;6.53;;;3.30;;
75169;SDS011;63749;49.186;9.222;2023-12-20T04:51:17;4.20;;;2.70;;
75169;SDS011;63749;49.186;9.222;2023-12-20T04:53:43;6.40;;;3.30;;
75169;SDS011;63749;49.186;9.222;2023-12-20T04:56:08;5.80;;;3.33;;
75169;SDS011;63749;49.186;9.222;2023-12-20T04:58:33;7.33;;;3.37;;
75169;SDS011;63749;49.186;9.222;2023-12-20T05:00:59;5.90;;;3.10;;
75169;SDS011;63749;49.186;9.222;2023-12-20T05:03:24;6.50;;;3.90;;
75169;SDS011;63749;49.186;9.222;2023-12-20T05:05:50;5.80;;;3.53;;
75169;SDS011;63749;49.186;9.222;2023-12-20T05:08:15;5.93;;;3.77;;
75169;SDS011;63749;49.186;9.222;2023-12-20T05:10:41;6.67;;;3.37;;
75169;SDS011;63749;49.186;9.222;2023-12-20T05:13:06;8.98;;;3.88;;
75169;SDS011;63749;49.186;9.222;2023-12-20T05:15:32;6.20;;;4.10;;
75169;SDS011;63749;49.186;9.222;2023-12-20T05:17:58;6.55;;;3.80;;
75169;SDS011;63749;49.186;9.222;2023-12-20T05:20:23;7.10;;;4.10;;
75169;SDS011;63749;49.186;9.222;2023-12-20T05:22:48;7.83;;;4.50;;
75169;SDS011;63749;49.186;9.222;2023-12-20T05:25:14;5.83;;;3.83;;
75169;SDS011;63749;49.186;9.222;2023-12-20T05:27:39;7.57;;;4.40;;
75169;SDS011;63749;49.186;9.222;2023-12-20T05:30:05;7.63;;;4.50;;
75169;SDS011;63749;49.186;9.222;2023-12-20T05:32:31;8.93;;;4.70;;
75169;SDS011;63749;49.186;9.222;2023-12-20T05:34:56;9.00;;;4.77;;
75169;SDS011;63749;49.186;9.222;2023-12-20T05:37:21;8.50;;;4.47;;
75169;SDS011;63749;49.186;9.222;2023-12-20T05:39:47;8.37;;;4.70;;
75169;SDS011;63749;49.186;9.222;2023-12-20T05:42:12;8.90;;;4.30;;
75169;SDS011;63749;49.186;9.222;2023-12-20T05:44:37;11.03;;;5.27;;
75169;SDS011;63749;49.186;9.222;2023-12-20T05:47:03;9.67;;;4.90;;
75169;SDS011;63749;49.186;9.222;2023-12-20T05:49:28;7.20;;;4.30;;
75169;SDS011;63749;49.186;9.222;2023-12-20T05:51:54;9.40;;;4.68;;
75169;SDS011;63749;49.186;9.222;2023-12-20T05:54:19;9.27;;;4.13;;
75169;SDS011;63749;49.186;9.222;2023-12-20T05:56:44;7.97;;;4.87;;
75169;SDS011;63749;49.186;9.222;2023-12-20T05:59:10;8.17;;;4.97;;
75169;SDS011;63749;49.186;9.222;2023-12-20T06:01:35;8.47;;;4.90;;
75169;SDS011;63749;49.186;9.222;2023-12-20T06:04:00;8.33;;;4.80;;
75169;SDS011;63749;49.186;9.222;2023-12-20T06:06:26;8.33;;;4.90;;
75169;SDS011;63749;49.186;9.222;2023-12-20T06:08:51;7.50;;;4.43;;
75169;SDS011;63749;49.186;9.222;2023-12-20T06:11:16;8.23;;;4.70;;
75169;SDS011;63749;49.186;9.222;2023-12-20T06:13:42;8.57;;;5.00;;
75169;SDS011;63749;49.186;9.222;2023-12-20T06:16:07;8.87;;;4.87;;
75169;SDS011;63749;49.186;9.222;2023-12-20T06:18:32;8.40;;;5.33;;
75169;SDS011;63749;49.186;9.222;2023-12-20T06:20:58;10.17;;;5.17;;
75169;SDS011;63749;49.186;9.222;2023-12-20T06:23:23;7.17;;;4.50;;
75169;SDS011;63749;49.186;9.222;2023-12-20T06:25:48;11.27;;;5.78;;
75169;SDS011;63749;49.186;9.222;2023-12-20T06:28:14;11.30;;;5.73;;
75169;SDS011;63749;49.186;9.222;2023-12-20T06:30:40;10.40;;;5.83;;
75169;SDS011;63749;49.186;9.222;2023-12-20T06:33:05;10.93;;;6.43;;
75169;SDS011;63749;49.186;9.222;2023-12-20T06:35:31;9.23;;;6.17;;
75169;SDS011;63749;49.186;9.222;2023-12-20T06:37:57;10.20;;;6.38;;
75169;SDS011;63749;49.186;9.222;2023-12-20T06:40:22;10.90;;;6.07;;
75169;SDS011;63749;49.186;9.222;2023-12-20T06:42:47;9.27;;;5.63;;
75169;SDS011;63749;49.186;9.222;2023-12-20T06:45:13;9.93;;;6.30;;
75169;SDS011;63749;49.186;9.222;2023-12-20T06:47:38;11.33;;;6.10;;
75169;SDS011;63749;49.186;9.222;2023-12-20T06:50:04;9.07;;;6.07;;
75169;SDS011;63749;49.186;9.222;2023-12-20T06:52:30;10.07;;;5.80;;
75169;SDS011;63749;49.186;9.222;2023-12-20T06:54:55;10.47;;;5.43;;
75169;SDS011;63749;49.186;9.222;2023-12-20T06:57:21;10.83;;;6.37;;
75169;SDS011;63749;49.186;9.222;2023-12-20T06:59:46;13.27;;;6.63;;
75169;SDS011;63749;49.186;9.222;2023-12-20T07:02:11;7.80;;;4.63;;
75169;SDS011;63749;49.186;9.222;2023-12-20T07:04:40;10.55;;;6.00;;
75169;SDS011;63749;49.186;9.222;2023-12-20T07:07:06;10.40;;;6.40;;
75169;SDS011;63749;49.186;9.222;2023-12-20T07:09:32;9.90;;;5.78;;
75169;SDS011;63749;49.186;9.222;2023-12-20T07:11:57;11.70;;;6.30;;
75169;SDS011;63749;49.186;9.222;2023-12-20T07:14:23;11.13;;;5.68;;
75169;SDS011;63749;49.186;9.222;2023-12-20T07:16:48;8.87;;;5.83;;
75169;SDS011;63749;49.186;9.222;2023-12-20T07:19:14;11.70;;;5.53;;
75169;SDS011;63749;49.186;9.222;2023-12-20T07:21:39;7.82;;;4.68;;
75169;SDS011;63749;49.186;9.222;2023-12-20T07:24:05;10.23;;;5.30;;
75169;SDS011;63749;49.186;9.222;2023-12-20T07:26:30;9.60;;;5.10;;
75169;SDS011;63749;49.186;9.222;2023-12-20T07:28:55;9.13;;;5.20;;
75169;SDS011;63749;49.186;9.222;2023-12-20T07:31:21;7.73;;;4.60;;
75169;SDS011;63749;49.186;9.222;2023-12-20T07:33:46;8.85;;;5.10;;
75169;SDS011;63749;49.186;9.222;2023-12-20T07:36:12;8.20;;;4.97;;
75169;SDS011;63749;49.186;9.222;2023-12-20T07:38:38;8.30;;;4.90;;
75169;SDS011;63749;49.186;9.222;2023-12-20T07:41:03;8.40;;;5.00;;
75169;SDS011;63749;49.186;9.222;2023-12-20T07:43:28;9.57;;;5.03;;
75169;SDS011;63749;49.186;9.222;2023-12-20T07:45:54;9.77;;;5.00;;
75169;SDS011;63749;49.186;9.222;2023-12-20T07:48:19;7.67;;;4.90;;
75169;SDS011;63749;49.186;9.222;2023-12-20T07:50:44;8.87;;;4.90;;
75169;SDS011;63749;49.186;9.222;2023-12-20T07:53:11;8.85;;;4.97;;
75169;SDS011;63749;49.186;9.222;2023-12-20T07:55:36;8.27;;;4.77;;
75169;SDS011;63749;49.186;9.222;2023-12-20T07:58:01;8.33;;;5.10;;
75169;SDS011;63749;49.186;9.222;2023-12-20T08:00:27;10.48;;;5.35;;
75169;SDS011;63749;49.186;9.222;2023-12-20T08:02:52;10.77;;;5.07;;
75169;SDS011;63749;49.186;9.222;2023-12-20T08:05:18;10.77;;;4.90;;
75169;SDS011;63749;49.186;9.222;2023-12-20T08:07:43;12.13;;;4.30;;
75169;SDS011;63749;49.186;9.222;2023-12-20T08:10:08;8.30;;;5.13;;
75169;SDS011;63749;49.186;9.222;2023-12-20T08:12:34;9.57;;;5.30;;
75169;SDS011;63749;49.186;9.222;2023-12-20T08:14:59;10.57;;;5.27;;
75169;SDS011;63749;49.186;9.222;2023-12-20T08:17:25;8.90;;;5.40;;
75169;SDS011;63749;49.186;9.222;2023-12-20T08:19:50;11.03;;;5.50;;
75169;SDS011;63749;49.186;9.222;2023-12-20T08:22:16;10.05;;;5.75;;
75169;SDS011;63749;49.186;9.222;2023-12-20T08:24:41;10.20;;;5.33;;
75169;SDS011;63749;49.186;9.222;2023-12-20T08:27:07;12.17;;;6.00;;
75169;SDS011;63749;49.186;9.222;2023-12-20T08:29:32;7.53;;;4.33;;
75169;SDS011;63749;49.186;9.222;2023-12-20T08:31:57;11.17;;;6.00;;
75169;SDS011;63749;49.186;9.222;2023-12-20T08:34:24;10.20;;;5.72;;
75169;SDS011;63749;49.186;9.222;2023-12-20T08:36:50;9.33;;;5.80;;
75169;SDS011;63749;49.186;9.222;2023-12-20T08:39:16;9.80;;;5.63;;
75169;SDS011;63749;49.186;9.222;2023-12-20T08:41:41;9.93;;;5.87;;
75169;SDS011;63749;49.186;9.222;2023-12-20T08:44:06;10.13;;;5.20;;
75169;SDS011;63749;49.186;9.222;2023-12-20T08:46:32;9.30;;;5.20;;
75169;SDS011;63749;49.186;9.222;2023-12-20T08:48:57;9.20;;;4.27;;
75169;SDS011;63749;49.186;9.222;2023-12-20T08:51:23;9.03;;;4.60;;
75169;SDS011;63749;49.186;9.222;2023-12-20T08:53:50;6.63;;;3.92;;
75169;SDS011;63749;49.186;9.222;2023-12-20T08:56:16;7.83;;;4.00;;
75169;SDS011;63749;49.186;9.222;2023-12-20T08:58:42;6.80;;;3.70;;
75169;SDS011;63749;49.186;9.222;2023-12-20T09:01:08;5.60;;;3.30;;
75169;SDS011;63749;49.186;9.222;2023-12-20T09:03:34;8.47;;;3.37;;
75169;SDS011;63749;49.186;9.222;2023-12-20T09:05:59;7.17;;;3.17;;
75169;SDS011;63749;49.186;9.222;2023-12-20T09:08:25;6.17;;;3.10;;
75169;SDS011;63749;49.186;9.222;2023-12-20T09:10:50;6.60;;;2.77;;
75169;SDS011;63749;49.186;9.222;2023-12-20T09:13:15;5.00;;;2.60;;
75169;SDS011;63749;49.186;9.222;2023-12-20T09:15:41;5.60;;;2.60;;
75169;SDS011;63749;49.186;9.222;2023-12-20T09:18:06;6.33;;;2.47;;
75169;SDS011;63749;49.186;9.222;2023-12-20T09:20:32;5.10;;;2.80;;
75169;SDS011;63749;49.186;9.222;2023-12-20T09:22:58;5.97;;;2.67;;
75169;SDS011;63749;49.186;9.222;2023-12-20T09:25:23;4.10;;;2.38;;
75169;SDS011;63749;49.186;9.222;2023-12-20T09:27:49;6.50;;;2.30;;
75169;SDS011;63749;49.186;9.222;2023-12-20T09:30:14;3.60;;;2.20;;
75169;SDS011;63749;49.186;9.222;2023-12-20T09:32:40;5.68;;;2.60;;
75169;SDS011;63749;49.186;9.222;2023-12-20T09:35:05;4.97;;;2.30;;
75169;SDS011;63749;49.186;9.222;2023-12-20T09:37:31;5.83;;;2.37;;
75169;SDS011;63749;49.186;9.222;2023-12-20T09:39:57;4.25;;;2.22;;
75169;SDS011;63749;49.186;9.222;2023-12-20T09:42:29;4.30;;;2.30;;
75169;SDS011;63749;49.186;9.222;2023-12-20T09:45:03;6.32;;;1.80;;
75169;SDS011;63749;49.186;9.222;2023-12-20T09:47:33;5.67;;;1.80;;
75169;SDS011;63749;49.186;9.222;2023-12-20T09:49:58;7.00;;;2.15;;
75169;SDS011;63749;49.186;9.222;2023-12-20T09:52:24;6.57;;;2.27;;
75169;SDS011;63749;49.186;9.222;2023-12-20T09:54:50;4.22;;;1.90;;
75169;SDS011;63749;49.186;9.222;2023-12-20T09:57:18;4.83;;;1.70;;
75169;SDS011;63749;49.186;9.222;2023-12-20T09:59:43;6.22;;;2.30;;
75169;SDS011;63749;49.186;9.222;2023-12-20T10:02:09;4.77;;;1.80;;
75169;SDS011;63749;49.186;9.222;2023-12-20T10:04:39;5.45;;;1.90;;
75169;SDS011;63749;49.186;9.222;2023-12-20T10:07:10;4.67;;;2.20;;
75169;SDS011;63749;49.186;9.222;2023-12-20T10:09:36;6.10;;;1.90;;
75169;SDS011;63749;49.186;9.222;2023-12-20T10:12:02;8.17;;;1.50;;
75169;SDS011;63749;49.186;9.222;2023-12-20T10:14:27;5.67;;;1.87;;
75169;SDS011;63749;49.186;9.222;2023-12-20T10:16:52;5.35;;;1.77;;
75169;SDS011;63749;49.186;9.222;2023-12-20T10:19:19;5.40;;;1.80;;
75169;SDS011;63749;49.186;9.222;2023-12-20T10:21:44;5.32;;;1.92;;
75169;SDS011;63749;49.186;9.222;2023-12-20T10:24:11;5.50;;;1.53;;
75169;SDS011;63749;49.186;9.222;2023-12-20T10:26:42;6.27;;;1.60;;
75169;SDS011;63749;49.186;9.222;2023-12-20T10:29:07;6.87;;;1.50;;
75169;SDS011;63749;49.186;9.222;2023-12-20T10:31:33;6.93;;;1.73;;
75169;SDS011;63749;49.186;9.222;2023-12-20T10:33:59;5.73;;;2.10;;
75169;SDS011;63749;49.186;9.222;2023-12-20T10:36:26;7.75;;;1.90;;
75169;SDS011;63749;49.186;9.222;2023-12-20T10:38:53;5.57;;;2.03;;
75169;SDS011;63749;49.186;9.222;2023-12-20T10:41:23;5.40;;;1.63;;
75169;SDS011;63749;49.186;9.222;2023-12-20T10:43:55;3.47;;;1.50;;
75169;SDS011;63749;49.186;9.222;2023-12-20T10:46:23;3.33;;;1.30;;
75169;SDS011;63749;49.186;9.222;2023-12-20T10:48:51;8.57;;;2.00;;
75169;SDS011;63749;49.186;9.222;2023-12-20T10:51:20;7.40;;;1.77;;
75169;SDS011;63749;49.186;9.222;2023-12-20T10:53:47;6.72;;;1.80;;
75169;SDS011;63749;49.186;9.222;2023-12-20T10:56:15;5.22;;;1.67;;
75169;SDS011;63749;49.186;9.222;2023-12-20T10:58:44;4.20;;;1.30;;
75169;SDS011;63749;49.186;9.222;2023-12-20T11:01:12;6.03;;;2.22;;
75169;SDS011;63749;49.186;9.222;2023-12-20T11:03:45;5.22;;;1.98;;
75169;SDS011;63749;49.186;9.222;2023-12-20T11:09:13;6.47;;;1.90;;
75169;SDS011;63749;49.186;9.222;2023-12-20T11:12:02;6.63;;;1.70;;
75169;SDS011;63749;49.186;9.222;2023-12-20T11:19:38;7.38;;;1.63;;
75169;SDS011;63749;49.186;9.222;2023-12-20T11:22:31;7.03;;;1.80;;
75169;SDS011;63749;49.186;9.222;2023-12-20T11:27:31;6.05;;;2.08;;
75169;SDS011;63749;49.186;9.222;2023-12-20T11:29:57;3.53;;;1.80;;
75169;SDS011;63749;49.186;9.222;2023-12-20T11:34:58;4.77;;;1.50;;
75169;SDS011;63749;49.186;9.222;2023-12-20T11:37:42;5.57;;;1.45;;
75169;SDS011;63749;49.186;9.222;2023-12-20T11:40:11;8.60;;;2.07;;
75169;SDS011;63749;49.186;9.222;2023-12-20T11:42:38;6.22;;;1.60;;
75169;SDS011;63749;49.186;9.222;2023-12-20T11:45:14;6.43;;;1.70;;
75169;SDS011;63749;49.186;9.222;2023-12-20T11:47:47;5.38;;;1.55;;
75169;SDS011;63749;49.186;9.222;2023-12-20T11:50:20;8.88;;;1.80;;
75169;SDS011;63749;49.186;9.222;2023-12-20T11:52:47;5.33;;;1.80;;
75169;SDS011;63749;49.186;9.222;2023-12-20T11:55:13;6.28;;;1.70;;
75169;SDS011;63749;49.186;9.222;2023-12-20T11:57:39;5.15;;;1.90;;
75169;SDS011;63749;49.186;9.222;2023-12-20T12:00:05;7.93;;;1.77;;
75169;SDS011;63749;49.186;9.222;2023-12-20T12:02:31;6.57;;;1.88;;
75169;SDS011;63749;49.186;9.222;2023-12-20T12:04:57;6.68;;;1.88;;
75169;SDS011;63749;49.186;9.222;2023-12-20T12:07:23;6.38;;;1.70;;
75169;SDS011;63749;49.186;9.222;2023-12-20T12:09:49;4.80;;;1.67;;
75169;SDS011;63749;49.186;9.222;2023-12-20T12:12:14;4.83;;;1.70;;
75169;SDS011;63749;49.186;9.222;2023-12-20T12:14:40;9.38;;;2.20;;
75169;SDS011;63749;49.186;9.222;2023-12-20T12:17:12;10.47;;;2.20;;
75169;SDS011;63749;49.186;9.222;2023-12-20T12:19:38;8.40;;;2.15;;
75169;SDS011;63749;49.186;9.222;2023-12-20T12:22:07;9.35;;;2.65;;
75169;SDS011;63749;49.186;9.222;2023-12-20T12:24:41;8.65;;;2.17;;
75169;SDS011;63749;49.186;9.222;2023-12-20T12:27:09;9.60;;;2.60;;
75169;SDS011;63749;49.186;9.222;2023-12-20T12:29:36;10.07;;;2.70;;
75169;SDS011;63749;49.186;9.222;2023-12-20T12:32:08;6.25;;;2.08;;
75169;SDS011;63749;49.186;9.222;2023-12-20T12:34:34;6.70;;;2.05;;
75169;SDS011;63749;49.186;9.222;2023-12-20T12:37:00;7.22;;;2.10;;
75169;SDS011;63749;49.186;9.222;2023-12-20T12:39:26;5.83;;;2.23;;
75169;SDS011;63749;49.186;9.222;2023-12-20T12:41:55;7.38;;;2.45;;
75169;SDS011;63749;49.186;9.222;2023-12-20T12:44:21;5.13;;;1.80;;
75169;SDS011;63749;49.186;9.222;2023-12-20T12:46:48;5.38;;;1.98;;
75169;SDS011;63749;49.186;9.222;2023-12-20T12:49:18;9.23;;;2.40;;
75169;SDS011;63749;49.186;9.222;2023-12-20T12:51:47;6.78;;;2.10;;
75169;SDS011;63749;49.186;9.222;2023-12-20T12:54:12;10.60;;;2.13;;
75169;SDS011;63749;49.186;9.222;2023-12-20T12:56:38;6.85;;;2.05;;
75169;SDS011;63749;49.186;9.222;2023-12-20T12:59:04;12.70;;;2.50;;
75169;SDS011;63749;49.186;9.222;2023-12-20T13:01:30;7.40;;;2.33;;
75169;SDS011;63749;49.186;9.222;2023-12-20T13:03:56;7.23;;;2.10;;
75169;SDS011;63749;49.186;9.222;2023-12-20T13:06:21;6.97;;;2.10;;
75169;SDS011;63749;49.186;9.222;2023-12-20T13:08:47;8.30;;;2.33;;
75169;SDS011;63749;49.186;9.222;2023-12-20T13:11:12;6.90;;;2.37;;
75169;SDS011;63749;49.186;9.222;2023-12-20T13:13:38;5.97;;;2.07;;
75169;SDS011;63749;49.186;9.222;2023-12-20T13:16:03;9.57;;;2.07;;
75169;SDS011;63749;49.186;9.222;2023-12-20T13:18:29;8.45;;;2.08;;
75169;SDS011;63749;49.186;9.222;2023-12-20T13:20:55;6.70;;;2.20;;
75169;SDS011;63749;49.186;9.222;2023-12-20T13:23:20;7.50;;;2.45;;
75169;SDS011;63749;49.186;9.222;2023-12-20T13:25:46;6.60;;;2.20;;
75169;SDS011;63749;49.186;9.222;2023-12-20T13:28:11;9.55;;;2.20;;
75169;SDS011;63749;49.186;9.222;2023-12-20T13:30:37;6.87;;;2.20;;
75169;SDS011;63749;49.186;9.222;2023-12-20T13:33:04;5.93;;;1.98;;
75169;SDS011;63749;49.186;9.222;2023-12-20T13:35:30;7.97;;;2.13;;
75169;SDS011;63749;49.186;9.222;2023-12-20T13:37:55;6.80;;;1.90;;
75169;SDS011;63749;49.186;9.222;2023-12-20T13:40:21;4.50;;;1.63;;
75169;SDS011;63749;49.186;9.222;2023-12-20T13:42:46;5.87;;;2.17;;
75169;SDS011;63749;49.186;9.222;2023-12-20T13:45:13;9.48;;;2.10;;
75169;SDS011;63749;49.186;9.222;2023-12-20T13:47:38;5.83;;;1.90;;
75169;SDS011;63749;49.186;9.222;2023-12-20T13:50:04;4.93;;;1.80;;
75169;SDS011;63749;49.186;9.222;2023-12-20T13:52:30;6.33;;;2.10;;
75169;SDS011;63749;49.186;9.222;2023-12-20T13:54:55;7.70;;;2.23;;
75169;SDS011;63749;49.186;9.222;2023-12-20T13:57:21;6.67;;;2.30;;
75169;SDS011;63749;49.186;9.222;2023-12-20T13:59:46;6.83;;;1.90;;
75169;SDS011;63749;49.186;9.222;2023-12-20T14:02:11;12.30;;;2.30;;
75169;SDS011;63749;49.186;9.222;2023-12-20T14:04:37;8.27;;;2.13;;
75169;SDS011;63749;49.186;9.222;2023-12-20T14:07:04;9.77;;;2.28;;
75169;SDS011;63749;49.186;9.222;2023-12-20T14:09:30;8.90;;;2.60;;
75169;SDS011;63749;49.186;9.222;2023-12-20T14:11:55;7.67;;;2.30;;
75169;SDS011;63749;49.186;9.222;2023-12-20T14:14:20;9.40;;;2.60;;
75169;SDS011;63749;49.186;9.222;2023-12-20T14:16:46;5.23;;;2.27;;
75169;SDS011;63749;49.186;9.222;2023-12-20T14:19:11;9.85;;;2.47;;
75169;SDS011;63749;49.186;9.222;2023-12-20T14:21:37;9.30;;;2.40;;
75169;SDS011;63749;49.186;9.222;2023-12-20T14:24:02;9.70;;;2.67;;
75169;SDS011;63749;49.186;9.222;2023-12-20T14:26:29;7.30;;;2.40;;
75169;SDS011;63749;49.186;9.222;2023-12-20T14:28:54;8.35;;;2.35;;
75169;SDS011;63749;49.186;9.222;2023-12-20T14:31:20;7.50;;;2.57;;
75169;SDS011;63749;49.186;9.222;2023-12-20T14:33:45;13.60;;;3.27;;
75169;SDS011;63749;49.186;9.222;2023-12-20T14:36:11;11.25;;;2.75;;
75169;SDS011;63749;49.186;9.222;2023-12-20T14:38:36;10.77;;;3.00;;
75169;SDS011;63749;49.186;9.222;2023-12-20T14:41:02;11.93;;;2.95;;
75169;SDS011;63749;49.186;9.222;2023-12-20T14:43:33;12.73;;;3.13;;
75169;SDS011;63749;49.186;9.222;2023-12-20T14:45:58;11.67;;;2.40;;
75169;SDS011;63749;49.186;9.222;2023-12-20T14:48:24;7.10;;;2.35;;
75169;SDS011;63749;49.186;9.222;2023-12-20T14:50:50;12.47;;;2.90;;